sensor_id;sensor_type;location;lat;lon;timestamp;temperature;humidity
20200;DHT22;36284;37.236;-121.934;2023-08-12T00:01:46;29.40;99.90
20200;DHT22;36284;37.236;-121.934;2023-08-12T00:04:13;29.20;99.90
20200;DHT22;36284;37.236;-121.934;2023-08-12T00:06:42;29.00;99.90
20200;DHT22;36284;37.236;-121.934;2023-08-12T00:09:09;28.80;99.90
20200;DHT22;36284;37.236;-121.934;2023-08-12T00:11:38;29.30;99.90
20200;DHT22;36284;37.236;-121.934;2023-08-12T00:14:05;28.90;99.90
20200;DHT22;36284;37.236;-121.934;2023-08-12T00:16:32;29.30;99.90
20200;DHT22;36284;37.236;-121.934;2023-08-12T00:18:59;29.20;99.90
20200;DHT22;36284;37.236;-121.934;2023-08-12T00:21:27;29.20;99.90
20200;DHT22;36284;37.236;-121.934;2023-08-12T00:23:54;28.70;99.90
20200;DHT22;36284;37.236;-121.934;2023-08-12T00:26:21;28.90;99.90
20200;DHT22;36284;37.236;-121.934;2023-08-12T00:28:49;29.00;99.90
20200;DHT22;36284;37.236;-121.934;2023-08-12T00:31:16;28.90;99.90
20200;DHT22;36284;37.236;-121.934;2023-08-12T00:33:43;29.00;99.90
20200;DHT22;36284;37.236;-121.934;2023-08-12T00:36:10;28.90;99.90
20200;DHT22;36284;37.236;-121.934;2023-08-12T00:38:37;28.80;99.90
20200;DHT22;36284;37.236;-121.934;2023-08-12T00:41:04;28.40;99.90
20200;DHT22;36284;37.236;-121.934;2023-08-12T00:43:31;28.70;99.90
20200;DHT22;36284;37.236;-121.934;2023-08-12T00:45:58;28.70;99.90
20200;DHT22;36284;37.236;-121.934;2023-08-12T00:48:25;28.60;99.90
20200;DHT22;36284;37.236;-121.934;2023-08-12T00:50:53;28.60;99.90
20200;DHT22;36284;37.236;-121.934;2023-08-12T00:53:20;28.20;99.90
20200;DHT22;36284;37.236;-121.934;2023-08-12T00:55:47;28.00;99.90
20200;DHT22;36284;37.236;-121.934;2023-08-12T00:58:14;27.80;99.90
20200;DHT22;36284;37.236;-121.934;2023-08-12T01:00:42;28.00;99.90
20200;DHT22;36284;37.236;-121.934;2023-08-12T01:05:36;27.80;99.90
20200;DHT22;36284;37.236;-121.934;2023-08-12T01:08:03;27.80;99.90
20200;DHT22;36284;37.236;-121.934;2023-08-12T01:10:34;27.50;99.90
20200;DHT22;36284;37.236;-121.934;2023-08-12T01:15:41;27.80;99.90
20200;DHT22;36284;37.236;-121.934;2023-08-12T01:18:10;27.40;99.90
20200;DHT22;36284;37.236;-121.934;2023-08-12T01:20:38;26.80;99.90
20200;DHT22;36284;37.236;-121.934;2023-08-12T01:23:15;26.70;99.90
20200;DHT22;36284;37.236;-121.934;2023-08-12T01:25:43;26.40;99.90
20200;DHT22;36284;37.236;-121.934;2023-08-12T01:31:11;26.20;99.90
20200;DHT22;36284;37.236;-121.934;2023-08-12T01:33:55;26.00;99.90
20200;DHT22;36284;37.236;-121.934;2023-08-12T01:36:25;26.00;99.90
20200;DHT22;36284;37.236;-121.934;2023-08-12T01:38:54;25.90;99.90
20200;DHT22;36284;37.236;-121.934;2023-08-12T01:41:23;25.60;99.90
20200;DHT22;36284;37.236;-121.934;2023-08-12T01:43:51;25.30;99.90
20200;DHT22;36284;37.236;-121.934;2023-08-12T01:46:18;25.60;99.90
20200;DHT22;36284;37.236;-121.934;2023-08-12T01:48:45;25.40;99.90
20200;DHT22;36284;37.236;-121.934;2023-08-12T01:51:12;25.30;99.90
20200;DHT22;36284;37.236;-121.934;2023-08-12T01:53:39;25.50;99.90
20200;DHT22;36284;37.236;-121.934;2023-08-12T01:56:06;25.30;99.90
20200;DHT22;36284;37.236;-121.934;2023-08-12T01:58:33;25.20;99.90
20200;DHT22;36284;37.236;-121.934;2023-08-12T02:03:33;24.90;99.90
20200;DHT22;36284;37.236;-121.934;2023-08-12T02:06:01;24.90;99.90
20200;DHT22;36284;37.236;-121.934;2023-08-12T02:13:21;24.30;99.90
20200;DHT22;36284;37.236;-121.934;2023-08-12T02:15:48;24.30;99.90
20200;DHT22;36284;37.236;-121.934;2023-08-12T02:18:15;24.20;99.90
20200;DHT22;36284;37.236;-121.934;2023-08-12T02:20:42;24.30;99.90
20200;DHT22;36284;37.236;-121.934;2023-08-12T02:23:10;24.20;99.90
20200;DHT22;36284;37.236;-121.934;2023-08-12T02:25:36;24.00;99.90
20200;DHT22;36284;37.236;-121.934;2023-08-12T02:28:04;24.00;99.90
20200;DHT22;36284;37.236;-121.934;2023-08-12T02:30:31;23.80;99.90
20200;DHT22;36284;37.236;-121.934;2023-08-12T02:32:58;23.80;99.90
20200;DHT22;36284;37.236;-121.934;2023-08-12T02:35:25;23.40;99.90
20200;DHT22;36284;37.236;-121.934;2023-08-12T02:40:19;23.30;99.90
20200;DHT22;36284;37.236;-121.934;2023-08-12T02:42:46;23.50;99.90
20200;DHT22;36284;37.236;-121.934;2023-08-12T02:45:13;23.60;99.90
20200;DHT22;36284;37.236;-121.934;2023-08-12T02:47:40;23.30;99.90
20200;DHT22;36284;37.236;-121.934;2023-08-12T02:50:07;23.30;99.90
20200;DHT22;36284;37.236;-121.934;2023-08-12T02:52:34;23.40;99.90
20200;DHT22;36284;37.236;-121.934;2023-08-12T02:55:01;23.10;99.90
20200;DHT22;36284;37.236;-121.934;2023-08-12T02:57:28;22.70;99.90
20200;DHT22;36284;37.236;-121.934;2023-08-12T02:59:55;22.50;99.90
20200;DHT22;36284;37.236;-121.934;2023-08-12T03:02:22;22.60;99.90
20200;DHT22;36284;37.236;-121.934;2023-08-12T03:04:49;22.50;99.90
20200;DHT22;36284;37.236;-121.934;2023-08-12T03:07:16;22.30;99.90
20200;DHT22;36284;37.236;-121.934;2023-08-12T03:09:44;22.40;99.90
20200;DHT22;36284;37.236;-121.934;2023-08-12T03:12:11;22.20;99.90
20200;DHT22;36284;37.236;-121.934;2023-08-12T03:14:38;22.10;99.90
20200;DHT22;36284;37.236;-121.934;2023-08-12T03:17:05;22.00;99.90
20200;DHT22;36284;37.236;-121.934;2023-08-12T03:19:32;21.60;99.90
20200;DHT22;36284;37.236;-121.934;2023-08-12T03:21:58;21.50;99.90
20200;DHT22;36284;37.236;-121.934;2023-08-12T03:24:25;21.40;99.90
20200;DHT22;36284;37.236;-121.934;2023-08-12T03:26:52;21.20;99.90
20200;DHT22;36284;37.236;-121.934;2023-08-12T03:29:19;21.30;99.90
20200;DHT22;36284;37.236;-121.934;2023-08-12T03:31:46;21.20;99.90
20200;DHT22;36284;37.236;-121.934;2023-08-12T03:34:13;21.20;99.90
20200;DHT22;36284;37.236;-121.934;2023-08-12T03:36:40;21.20;99.90
20200;DHT22;36284;37.236;-121.934;2023-08-12T03:39:07;21.30;99.90
20200;DHT22;36284;37.236;-121.934;2023-08-12T03:41:34;21.20;99.90
20200;DHT22;36284;37.236;-121.934;2023-08-12T03:44:01;20.90;99.90
20200;DHT22;36284;37.236;-121.934;2023-08-12T03:46:28;20.90;99.90
20200;DHT22;36284;37.236;-121.934;2023-08-12T03:48:55;20.70;99.90
20200;DHT22;36284;37.236;-121.934;2023-08-12T03:51:22;20.80;99.90
20200;DHT22;36284;37.236;-121.934;2023-08-12T03:53:49;20.70;99.90
20200;DHT22;36284;37.236;-121.934;2023-08-12T03:56:16;20.70;99.90
20200;DHT22;36284;37.236;-121.934;2023-08-12T03:58:43;20.60;99.90
20200;DHT22;36284;37.236;-121.934;2023-08-12T04:01:10;20.70;99.90
20200;DHT22;36284;37.236;-121.934;2023-08-12T04:03:37;20.60;99.90
20200;DHT22;36284;37.236;-121.934;2023-08-12T04:06:04;20.20;99.90
20200;DHT22;36284;37.236;-121.934;2023-08-12T04:08:31;20.30;99.90
20200;DHT22;36284;37.236;-121.934;2023-08-12T04:10:58;20.40;99.90
20200;DHT22;36284;37.236;-121.934;2023-08-12T04:13:25;20.20;99.90
20200;DHT22;36284;37.236;-121.934;2023-08-12T04:15:53;20.20;99.90
20200;DHT22;36284;37.236;-121.934;2023-08-12T04:18:20;20.30;99.90
20200;DHT22;36284;37.236;-121.934;2023-08-12T04:20:49;20.20;99.90
20200;DHT22;36284;37.236;-121.934;2023-08-12T04:23:17;20.00;99.90
20200;DHT22;36284;37.236;-121.934;2023-08-12T04:25:45;20.00;99.90
20200;DHT22;36284;37.236;-121.934;2023-08-12T04:28:13;20.00;99.90
20200;DHT22;36284;37.236;-121.934;2023-08-12T04:30:45;20.00;99.90
20200;DHT22;36284;37.236;-121.934;2023-08-12T04:33:13;20.20;99.90
20200;DHT22;36284;37.236;-121.934;2023-08-12T04:35:41;20.00;99.90
20200;DHT22;36284;37.236;-121.934;2023-08-12T04:38:08;19.90;99.90
20200;DHT22;36284;37.236;-121.934;2023-08-12T04:40:38;19.90;99.90
20200;DHT22;36284;37.236;-121.934;2023-08-12T04:43:07;19.80;99.90
20200;DHT22;36284;37.236;-121.934;2023-08-12T04:45:34;19.80;99.90
20200;DHT22;36284;37.236;-121.934;2023-08-12T04:48:01;19.60;99.90
20200;DHT22;36284;37.236;-121.934;2023-08-12T04:50:31;19.60;99.90
20200;DHT22;36284;37.236;-121.934;2023-08-12T04:53:00;19.40;99.90
20200;DHT22;36284;37.236;-121.934;2023-08-12T04:55:28;19.40;99.90
20200;DHT22;36284;37.236;-121.934;2023-08-12T04:57:55;19.60;99.90
20200;DHT22;36284;37.236;-121.934;2023-08-12T05:00:22;19.40;99.90
20200;DHT22;36284;37.236;-121.934;2023-08-12T05:02:49;19.50;99.90
20200;DHT22;36284;37.236;-121.934;2023-08-12T05:05:17;19.30;99.90
20200;DHT22;36284;37.236;-121.934;2023-08-12T05:07:43;19.20;99.90
20200;DHT22;36284;37.236;-121.934;2023-08-12T05:10:17;19.20;99.90
20200;DHT22;36284;37.236;-121.934;2023-08-12T05:12:44;19.20;99.90
20200;DHT22;36284;37.236;-121.934;2023-08-12T05:15:12;19.10;99.90
20200;DHT22;36284;37.236;-121.934;2023-08-12T05:17:39;19.00;99.90
20200;DHT22;36284;37.236;-121.934;2023-08-12T05:20:07;19.10;99.90
20200;DHT22;36284;37.236;-121.934;2023-08-12T05:22:34;19.00;99.90
20200;DHT22;36284;37.236;-121.934;2023-08-12T05:25:01;19.10;99.90
20200;DHT22;36284;37.236;-121.934;2023-08-12T05:27:28;19.10;99.90
20200;DHT22;36284;37.236;-121.934;2023-08-12T05:29:55;19.00;99.90
20200;DHT22;36284;37.236;-121.934;2023-08-12T05:32:22;19.00;99.90
20200;DHT22;36284;37.236;-121.934;2023-08-12T05:34:55;18.90;99.90
20200;DHT22;36284;37.236;-121.934;2023-08-12T05:37:22;18.80;99.90
20200;DHT22;36284;37.236;-121.934;2023-08-12T05:39:49;18.80;99.90
20200;DHT22;36284;37.236;-121.934;2023-08-12T05:42:16;18.90;99.90
20200;DHT22;36284;37.236;-121.934;2023-08-12T05:44:43;18.80;99.90
20200;DHT22;36284;37.236;-121.934;2023-08-12T05:47:10;18.90;99.90
20200;DHT22;36284;37.236;-121.934;2023-08-12T05:49:37;18.90;99.90
20200;DHT22;36284;37.236;-121.934;2023-08-12T05:52:04;18.80;99.90
20200;DHT22;36284;37.236;-121.934;2023-08-12T05:54:31;18.70;99.90
20200;DHT22;36284;37.236;-121.934;2023-08-12T05:56:59;18.70;99.90
20200;DHT22;36284;37.236;-121.934;2023-08-12T05:59:26;18.60;99.90
20200;DHT22;36284;37.236;-121.934;2023-08-12T06:01:54;18.60;99.90
20200;DHT22;36284;37.236;-121.934;2023-08-12T06:04:21;18.80;99.90
20200;DHT22;36284;37.236;-121.934;2023-08-12T06:06:48;18.90;99.90
20200;DHT22;36284;37.236;-121.934;2023-08-12T06:09:15;18.60;99.90
20200;DHT22;36284;37.236;-121.934;2023-08-12T06:11:42;18.60;99.90
20200;DHT22;36284;37.236;-121.934;2023-08-12T06:14:09;18.40;99.90
20200;DHT22;36284;37.236;-121.934;2023-08-12T06:16:36;18.30;99.90
20200;DHT22;36284;37.236;-121.934;2023-08-12T06:19:03;18.30;99.90
20200;DHT22;36284;37.236;-121.934;2023-08-12T06:21:30;18.30;99.90
20200;DHT22;36284;37.236;-121.934;2023-08-12T06:23:57;18.20;99.90
20200;DHT22;36284;37.236;-121.934;2023-08-12T06:26:24;18.20;99.90
20200;DHT22;36284;37.236;-121.934;2023-08-12T06:28:51;18.10;99.90
20200;DHT22;36284;37.236;-121.934;2023-08-12T06:31:18;18.00;99.90
20200;DHT22;36284;37.236;-121.934;2023-08-12T06:33:45;18.00;99.90
20200;DHT22;36284;37.236;-121.934;2023-08-12T06:36:12;18.00;99.90
20200;DHT22;36284;37.236;-121.934;2023-08-12T06:38:39;17.90;99.90
20200;DHT22;36284;37.236;-121.934;2023-08-12T06:41:06;17.90;99.90
20200;DHT22;36284;37.236;-121.934;2023-08-12T06:43:33;17.90;99.90
20200;DHT22;36284;37.236;-121.934;2023-08-12T06:46:00;18.00;99.90
20200;DHT22;36284;37.236;-121.934;2023-08-12T06:48:27;18.00;99.90
20200;DHT22;36284;37.236;-121.934;2023-08-12T06:50:54;18.10;99.90
20200;DHT22;36284;37.236;-121.934;2023-08-12T06:53:22;18.10;99.90
20200;DHT22;36284;37.236;-121.934;2023-08-12T06:55:49;17.90;99.90
20200;DHT22;36284;37.236;-121.934;2023-08-12T06:58:16;17.80;99.90
20200;DHT22;36284;37.236;-121.934;2023-08-12T07:00:43;17.90;99.90
20200;DHT22;36284;37.236;-121.934;2023-08-12T07:03:10;17.80;99.90
20200;DHT22;36284;37.236;-121.934;2023-08-12T07:05:37;17.80;99.90
20200;DHT22;36284;37.236;-121.934;2023-08-12T07:08:04;17.70;99.90
20200;DHT22;36284;37.236;-121.934;2023-08-12T07:10:31;17.70;99.90
20200;DHT22;36284;37.236;-121.934;2023-08-12T07:12:58;17.60;99.90
20200;DHT22;36284;37.236;-121.934;2023-08-12T07:15:25;17.60;99.90
20200;DHT22;36284;37.236;-121.934;2023-08-12T07:17:52;17.60;99.90
20200;DHT22;36284;37.236;-121.934;2023-08-12T07:20:19;17.40;99.90
20200;DHT22;36284;37.236;-121.934;2023-08-12T07:22:46;17.40;99.90
20200;DHT22;36284;37.236;-121.934;2023-08-12T07:25:13;17.50;99.90
20200;DHT22;36284;37.236;-121.934;2023-08-12T07:27:40;17.50;99.90
20200;DHT22;36284;37.236;-121.934;2023-08-12T07:30:07;17.40;99.90
20200;DHT22;36284;37.236;-121.934;2023-08-12T07:32:37;17.50;99.90
20200;DHT22;36284;37.236;-121.934;2023-08-12T07:35:05;17.40;99.90
20200;DHT22;36284;37.236;-121.934;2023-08-12T07:37:34;17.30;99.90
20200;DHT22;36284;37.236;-121.934;2023-08-12T07:40:02;17.20;99.90
20200;DHT22;36284;37.236;-121.934;2023-08-12T07:42:29;17.10;99.90
20200;DHT22;36284;37.236;-121.934;2023-08-12T07:44:56;17.10;99.90
20200;DHT22;36284;37.236;-121.934;2023-08-12T07:47:23;17.00;99.90
20200;DHT22;36284;37.236;-121.934;2023-08-12T07:49:50;17.00;99.90
20200;DHT22;36284;37.236;-121.934;2023-08-12T07:52:17;16.90;99.90
20200;DHT22;36284;37.236;-121.934;2023-08-12T07:54:44;16.90;99.90
20200;DHT22;36284;37.236;-121.934;2023-08-12T07:57:11;16.90;99.90
20200;DHT22;36284;37.236;-121.934;2023-08-12T07:59:38;16.90;99.90
20200;DHT22;36284;37.236;-121.934;2023-08-12T08:02:05;16.90;99.90
20200;DHT22;36284;37.236;-121.934;2023-08-12T08:04:33;16.70;99.90
20200;DHT22;36284;37.236;-121.934;2023-08-12T08:07:00;16.70;99.90
20200;DHT22;36284;37.236;-121.934;2023-08-12T08:09:27;16.70;99.90
20200;DHT22;36284;37.236;-121.934;2023-08-12T08:11:54;16.80;99.90
20200;DHT22;36284;37.236;-121.934;2023-08-12T08:14:21;16.70;99.90
20200;DHT22;36284;37.236;-121.934;2023-08-12T08:16:48;16.70;99.90
20200;DHT22;36284;37.236;-121.934;2023-08-12T08:19:15;16.60;99.90
20200;DHT22;36284;37.236;-121.934;2023-08-12T08:21:42;16.60;99.90
20200;DHT22;36284;37.236;-121.934;2023-08-12T08:24:09;16.50;99.90
20200;DHT22;36284;37.236;-121.934;2023-08-12T08:26:38;16.60;99.90
20200;DHT22;36284;37.236;-121.934;2023-08-12T08:29:05;16.50;99.90
20200;DHT22;36284;37.236;-121.934;2023-08-12T08:31:32;16.30;99.90
20200;DHT22;36284;37.236;-121.934;2023-08-12T08:33:59;16.40;99.90
20200;DHT22;36284;37.236;-121.934;2023-08-12T08:36:26;16.40;99.90
20200;DHT22;36284;37.236;-121.934;2023-08-12T08:38:53;16.30;99.90
20200;DHT22;36284;37.236;-121.934;2023-08-12T08:41:20;16.20;99.90
20200;DHT22;36284;37.236;-121.934;2023-08-12T08:43:48;16.30;99.90
20200;DHT22;36284;37.236;-121.934;2023-08-12T08:46:16;16.20;99.90
20200;DHT22;36284;37.236;-121.934;2023-08-12T08:48:44;16.30;99.90
20200;DHT22;36284;37.236;-121.934;2023-08-12T08:51:12;16.20;99.90
20200;DHT22;36284;37.236;-121.934;2023-08-12T08:53:39;16.10;99.90
20200;DHT22;36284;37.236;-121.934;2023-08-12T08:56:08;16.10;99.90
20200;DHT22;36284;37.236;-121.934;2023-08-12T08:58:40;16.10;99.90
20200;DHT22;36284;37.236;-121.934;2023-08-12T09:01:07;16.00;99.90
20200;DHT22;36284;37.236;-121.934;2023-08-12T09:03:37;15.90;99.90
20200;DHT22;36284;37.236;-121.934;2023-08-12T09:06:05;15.90;99.90
20200;DHT22;36284;37.236;-121.934;2023-08-12T09:08:32;16.00;99.90
20200;DHT22;36284;37.236;-121.934;2023-08-12T09:11:00;16.00;99.90
20200;DHT22;36284;37.236;-121.934;2023-08-12T09:13:29;16.00;99.90
20200;DHT22;36284;37.236;-121.934;2023-08-12T09:15:56;15.90;99.90
20200;DHT22;36284;37.236;-121.934;2023-08-12T09:18:23;16.00;99.90
20200;DHT22;36284;37.236;-121.934;2023-08-12T09:20:51;16.00;99.90
20200;DHT22;36284;37.236;-121.934;2023-08-12T09:23:18;16.00;99.90
20200;DHT22;36284;37.236;-121.934;2023-08-12T09:25:45;15.90;99.90
20200;DHT22;36284;37.236;-121.934;2023-08-12T09:28:12;15.90;99.90
20200;DHT22;36284;37.236;-121.934;2023-08-12T09:30:40;15.80;99.90
20200;DHT22;36284;37.236;-121.934;2023-08-12T09:33:08;15.80;99.90
20200;DHT22;36284;37.236;-121.934;2023-08-12T09:35:38;15.80;99.90
20200;DHT22;36284;37.236;-121.934;2023-08-12T09:38:07;15.80;99.90
20200;DHT22;36284;37.236;-121.934;2023-08-12T09:40:35;15.70;99.90
20200;DHT22;36284;37.236;-121.934;2023-08-12T09:43:03;15.70;99.90
20200;DHT22;36284;37.236;-121.934;2023-08-12T09:45:31;15.60;99.90
20200;DHT22;36284;37.236;-121.934;2023-08-12T09:47:59;15.70;99.90
20200;DHT22;36284;37.236;-121.934;2023-08-12T09:50:26;15.60;99.90
20200;DHT22;36284;37.236;-121.934;2023-08-12T09:52:54;15.70;99.90
20200;DHT22;36284;37.236;-121.934;2023-08-12T09:55:24;15.60;99.90
20200;DHT22;36284;37.236;-121.934;2023-08-12T09:57:52;15.60;99.90
20200;DHT22;36284;37.236;-121.934;2023-08-12T10:00:20;15.60;99.90
20200;DHT22;36284;37.236;-121.934;2023-08-12T10:02:50;15.60;99.90
20200;DHT22;36284;37.236;-121.934;2023-08-12T10:05:33;15.60;99.90
20200;DHT22;36284;37.236;-121.934;2023-08-12T10:08:00;15.60;99.90
20200;DHT22;36284;37.236;-121.934;2023-08-12T10:10:32;15.60;99.90
20200;DHT22;36284;37.236;-121.934;2023-08-12T10:12:59;15.60;99.90
20200;DHT22;36284;37.236;-121.934;2023-08-12T10:15:27;15.60;99.90
20200;DHT22;36284;37.236;-121.934;2023-08-12T10:17:56;15.50;99.90
20200;DHT22;36284;37.236;-121.934;2023-08-12T10:20:24;15.50;99.90
20200;DHT22;36284;37.236;-121.934;2023-08-12T10:22:52;15.30;99.90
20200;DHT22;36284;37.236;-121.934;2023-08-12T10:25:20;15.30;99.90
20200;DHT22;36284;37.236;-121.934;2023-08-12T10:27:50;15.30;99.90
20200;DHT22;36284;37.236;-121.934;2023-08-12T10:30:17;15.30;99.90
20200;DHT22;36284;37.236;-121.934;2023-08-12T10:32:45;15.30;99.90
20200;DHT22;36284;37.236;-121.934;2023-08-12T10:35:14;15.30;99.90
20200;DHT22;36284;37.236;-121.934;2023-08-12T10:37:41;15.30;99.90
20200;DHT22;36284;37.236;-121.934;2023-08-12T10:40:21;15.20;99.90
20200;DHT22;36284;37.236;-121.934;2023-08-12T10:42:49;15.20;99.90
20200;DHT22;36284;37.236;-121.934;2023-08-12T10:45:17;15.10;99.90
20200;DHT22;36284;37.236;-121.934;2023-08-12T10:48:32;15.20;99.90
20200;DHT22;36284;37.236;-121.934;2023-08-12T10:50:44;15.00;99.90
20200;DHT22;36284;37.236;-121.934;2023-08-12T10:53:23;15.10;99.90
20200;DHT22;36284;37.236;-121.934;2023-08-12T10:55:55;15.10;99.90
20200;DHT22;36284;37.236;-121.934;2023-08-12T10:58:33;15.10;99.90
20200;DHT22;36284;37.236;-121.934;2023-08-12T11:01:00;15.10;99.90
20200;DHT22;36284;37.236;-121.934;2023-08-12T11:03:32;15.00;99.90
20200;DHT22;36284;37.236;-121.934;2023-08-12T11:08:29;14.90;99.90
20200;DHT22;36284;37.236;-121.934;2023-08-12T11:10:56;15.00;99.90
20200;DHT22;36284;37.236;-121.934;2023-08-12T11:13:27;14.90;99.90
20200;DHT22;36284;37.236;-121.934;2023-08-12T11:16:09;14.90;99.90
20200;DHT22;36284;37.236;-121.934;2023-08-12T11:18:36;14.90;99.90
20200;DHT22;36284;37.236;-121.934;2023-08-12T11:21:03;14.90;99.90
20200;DHT22;36284;37.236;-121.934;2023-08-12T11:23:31;14.90;99.90
20200;DHT22;36284;37.236;-121.934;2023-08-12T11:25:58;14.90;99.90
20200;DHT22;36284;37.236;-121.934;2023-08-12T11:28:27;14.90;99.90
20200;DHT22;36284;37.236;-121.934;2023-08-12T11:30:54;14.80;99.90
20200;DHT22;36284;37.236;-121.934;2023-08-12T11:33:22;14.80;99.90
20200;DHT22;36284;37.236;-121.934;2023-08-12T11:35:50;14.80;99.90
20200;DHT22;36284;37.236;-121.934;2023-08-12T11:38:18;14.80;99.90
20200;DHT22;36284;37.236;-121.934;2023-08-12T11:40:45;14.70;99.90
20200;DHT22;36284;37.236;-121.934;2023-08-12T11:43:12;14.70;99.90
20200;DHT22;36284;37.236;-121.934;2023-08-12T11:45:42;14.80;99.90
20200;DHT22;36284;37.236;-121.934;2023-08-12T11:48:10;14.70;99.90
20200;DHT22;36284;37.236;-121.934;2023-08-12T11:50:37;14.80;99.90
20200;DHT22;36284;37.236;-121.934;2023-08-12T11:53:04;14.70;99.90
20200;DHT22;36284;37.236;-121.934;2023-08-12T11:55:31;14.60;99.90
20200;DHT22;36284;37.236;-121.934;2023-08-12T11:57:58;14.60;99.90
20200;DHT22;36284;37.236;-121.934;2023-08-12T12:00:25;14.60;99.90
20200;DHT22;36284;37.236;-121.934;2023-08-12T12:02:55;14.70;99.90
20200;DHT22;36284;37.236;-121.934;2023-08-12T12:05:25;14.70;99.90
20200;DHT22;36284;37.236;-121.934;2023-08-12T12:07:52;14.80;99.90
20200;DHT22;36284;37.236;-121.934;2023-08-12T12:10:33;14.70;99.90
20200;DHT22;36284;37.236;-121.934;2023-08-12T12:13:01;14.60;99.90
20200;DHT22;36284;37.236;-121.934;2023-08-12T12:15:28;14.60;99.90
20200;DHT22;36284;37.236;-121.934;2023-08-12T12:17:55;14.70;99.90
20200;DHT22;36284;37.236;-121.934;2023-08-12T12:20:23;14.70;99.90
20200;DHT22;36284;37.236;-121.934;2023-08-12T12:22:50;14.70;99.90
20200;DHT22;36284;37.236;-121.934;2023-08-12T12:25:17;14.60;99.90
20200;DHT22;36284;37.236;-121.934;2023-08-12T12:27:47;14.50;99.90
20200;DHT22;36284;37.236;-121.934;2023-08-12T12:30:16;14.50;99.90
20200;DHT22;36284;37.236;-121.934;2023-08-12T12:32:43;14.40;99.90
20200;DHT22;36284;37.236;-121.934;2023-08-12T12:35:10;14.40;99.90
20200;DHT22;36284;37.236;-121.934;2023-08-12T12:37:37;14.40;99.90
20200;DHT22;36284;37.236;-121.934;2023-08-12T12:40:05;14.50;99.90
20200;DHT22;36284;37.236;-121.934;2023-08-12T12:42:32;14.60;99.90
20200;DHT22;36284;37.236;-121.934;2023-08-12T12:44:59;14.60;99.90
20200;DHT22;36284;37.236;-121.934;2023-08-12T12:47:26;14.60;99.90
20200;DHT22;36284;37.236;-121.934;2023-08-12T12:49:53;14.50;99.90
20200;DHT22;36284;37.236;-121.934;2023-08-12T12:52:20;14.50;99.90
20200;DHT22;36284;37.236;-121.934;2023-08-12T12:54:47;14.50;99.90
20200;DHT22;36284;37.236;-121.934;2023-08-12T12:57:14;14.40;99.90
20200;DHT22;36284;37.236;-121.934;2023-08-12T12:59:41;14.40;99.90
20200;DHT22;36284;37.236;-121.934;2023-08-12T13:02:08;14.50;99.90
20200;DHT22;36284;37.236;-121.934;2023-08-12T13:04:35;14.40;99.90
20200;DHT22;36284;37.236;-121.934;2023-08-12T13:07:02;14.40;99.90
20200;DHT22;36284;37.236;-121.934;2023-08-12T13:09:29;14.40;99.90
20200;DHT22;36284;37.236;-121.934;2023-08-12T13:11:57;14.40;99.90
20200;DHT22;36284;37.236;-121.934;2023-08-12T13:14:24;14.40;99.90
20200;DHT22;36284;37.236;-121.934;2023-08-12T13:16:51;14.40;99.90
20200;DHT22;36284;37.236;-121.934;2023-08-12T13:19:18;14.40;99.90
20200;DHT22;36284;37.236;-121.934;2023-08-12T13:21:45;14.50;99.90
20200;DHT22;36284;37.236;-121.934;2023-08-12T13:24:12;14.50;99.90
20200;DHT22;36284;37.236;-121.934;2023-08-12T13:26:39;14.50;99.90
20200;DHT22;36284;37.236;-121.934;2023-08-12T13:29:06;14.50;99.90
20200;DHT22;36284;37.236;-121.934;2023-08-12T13:31:34;14.40;99.90
20200;DHT22;36284;37.236;-121.934;2023-08-12T13:34:01;14.50;99.90
20200;DHT22;36284;37.236;-121.934;2023-08-12T13:36:27;14.50;99.90
20200;DHT22;36284;37.236;-121.934;2023-08-12T13:38:55;14.50;99.90
20200;DHT22;36284;37.236;-121.934;2023-08-12T13:41:22;14.70;99.90
20200;DHT22;36284;37.236;-121.934;2023-08-12T13:43:49;14.80;99.90
20200;DHT22;36284;37.236;-121.934;2023-08-12T13:46:15;14.70;99.90
20200;DHT22;36284;37.236;-121.934;2023-08-12T13:48:42;14.70;99.90
20200;DHT22;36284;37.236;-121.934;2023-08-12T13:51:09;14.80;99.90
20200;DHT22;36284;37.236;-121.934;2023-08-12T13:53:36;15.00;99.90
20200;DHT22;36284;37.236;-121.934;2023-08-12T13:56:03;15.10;99.90
20200;DHT22;36284;37.236;-121.934;2023-08-12T13:58:30;15.30;99.90
20200;DHT22;36284;37.236;-121.934;2023-08-12T14:00:57;15.60;99.90
20200;DHT22;36284;37.236;-121.934;2023-08-12T14:03:24;15.60;99.90
20200;DHT22;36284;37.236;-121.934;2023-08-12T14:05:51;15.60;99.90
20200;DHT22;36284;37.236;-121.934;2023-08-12T14:08:18;15.70;99.90
20200;DHT22;36284;37.236;-121.934;2023-08-12T14:10:48;15.80;99.90
20200;DHT22;36284;37.236;-121.934;2023-08-12T14:13:16;16.00;99.90
20200;DHT22;36284;37.236;-121.934;2023-08-12T14:15:43;16.10;99.90
20200;DHT22;36284;37.236;-121.934;2023-08-12T14:18:10;16.50;99.90
20200;DHT22;36284;37.236;-121.934;2023-08-12T14:20:37;16.70;99.90
20200;DHT22;36284;37.236;-121.934;2023-08-12T14:23:04;17.00;99.90
20200;DHT22;36284;37.236;-121.934;2023-08-12T14:25:31;17.50;99.90
20200;DHT22;36284;37.236;-121.934;2023-08-12T14:27:58;19.10;99.90
20200;DHT22;36284;37.236;-121.934;2023-08-12T14:30:25;19.00;99.90
20200;DHT22;36284;37.236;-121.934;2023-08-12T14:32:53;19.80;99.90
20200;DHT22;36284;37.236;-121.934;2023-08-12T14:35:20;20.00;99.90
20200;DHT22;36284;37.236;-121.934;2023-08-12T14:37:47;19.90;99.90
20200;DHT22;36284;37.236;-121.934;2023-08-12T14:40:14;21.20;99.90
20200;DHT22;36284;37.236;-121.934;2023-08-12T14:42:41;21.80;99.90
20200;DHT22;36284;37.236;-121.934;2023-08-12T14:45:08;22.80;99.90
20200;DHT22;36284;37.236;-121.934;2023-08-12T14:47:35;23.00;99.90
20200;DHT22;36284;37.236;-121.934;2023-08-12T14:50:02;22.00;99.90
20200;DHT22;36284;37.236;-121.934;2023-08-12T14:52:30;20.40;99.90
20200;DHT22;36284;37.236;-121.934;2023-08-12T14:54:57;20.40;99.90
20200;DHT22;36284;37.236;-121.934;2023-08-12T14:57:24;21.00;99.90
20200;DHT22;36284;37.236;-121.934;2023-08-12T14:59:51;21.00;99.90
20200;DHT22;36284;37.236;-121.934;2023-08-12T15:02:20;20.90;99.90
20200;DHT22;36284;37.236;-121.934;2023-08-12T15:04:50;21.10;99.90
20200;DHT22;36284;37.236;-121.934;2023-08-12T15:07:18;21.60;99.90
20200;DHT22;36284;37.236;-121.934;2023-08-12T15:09:46;21.60;99.90
20200;DHT22;36284;37.236;-121.934;2023-08-12T15:12:13;22.00;99.90